sensor_id;sensor_type;location;lat;lon;timestamp;P1;durP1;ratioP1;P2;durP2;ratioP2
50319;SDS011;36226;53.464;9.852;2022-11-15T00:28:51;43.53;;;20.20;;
50319;SDS011;36226;53.464;9.852;2022-11-15T00:31:17;41.03;;;20.80;;
50319;SDS011;36226;53.464;9.852;2022-11-15T00:33:43;39.70;;;20.95;;
50319;SDS011;36226;53.464;9.852;2022-11-15T00:36:09;42.10;;;20.77;;
50319;SDS011;36226;53.464;9.852;2022-11-15T00:38:37;42.72;;;21.85;;
50319;SDS011;36226;53.464;9.852;2022-11-15T00:41:04;37.22;;;19.38;;
50319;SDS011;36226;53.464;9.852;2022-11-15T00:43:30;38.08;;;20.35;;
50319;SDS011;36226;53.464;9.852;2022-11-15T00:45:56;39.85;;;19.50;;
50319;SDS011;36226;53.464;9.852;2022-11-15T00:48:21;36.22;;;19.02;;
50319;SDS011;36226;53.464;9.852;2022-11-15T00:50:47;37.90;;;20.20;;
50319;SDS011;36226;53.464;9.852;2022-11-15T00:53:13;38.63;;;18.52;;
50319;SDS011;36226;53.464;9.852;2022-11-15T00:55:38;39.35;;;18.83;;
50319;SDS011;36226;53.464;9.852;2022-11-15T00:58:04;38.60;;;18.42;;
50319;SDS011;36226;53.464;9.852;2022-11-15T01:00:29;37.35;;;19.10;;
50319;SDS011;36226;53.464;9.852;2022-11-15T01:02:54;38.00;;;18.88;;
50319;SDS011;36226;53.464;9.852;2022-11-15T01:05:20;36.80;;;18.50;;
50319;SDS011;36226;53.464;9.852;2022-11-15T01:07:46;35.58;;;18.05;;
50319;SDS011;36226;53.464;9.852;2022-11-15T01:10:11;34.88;;;18.35;;
50319;SDS011;36226;53.464;9.852;2022-11-15T01:12:36;34.95;;;18.58;;
50319;SDS011;36226;53.464;9.852;2022-11-15T01:15:03;37.35;;;18.90;;
50319;SDS011;36226;53.464;9.852;2022-11-15T01:17:29;35.88;;;18.35;;
50319;SDS011;36226;53.464;9.852;2022-11-15T01:19:55;37.20;;;18.48;;
50319;SDS011;36226;53.464;9.852;2022-11-15T01:34:43;31.13;;;17.15;;
50319;SDS011;36226;53.464;9.852;2022-11-15T01:37:09;36.17;;;17.90;;
50319;SDS011;36226;53.464;9.852;2022-11-15T01:39:34;34.08;;;17.75;;
50319;SDS011;36226;53.464;9.852;2022-11-15T01:41:59;35.65;;;18.02;;
50319;SDS011;36226;53.464;9.852;2022-11-15T01:44:31;34.08;;;17.98;;
50319;SDS011;36226;53.464;9.852;2022-11-15T01:47:01;34.45;;;16.95;;
50319;SDS011;36226;53.464;9.852;2022-11-15T01:49:27;31.17;;;16.48;;
50319;SDS011;36226;53.464;9.852;2022-11-15T01:51:55;33.65;;;17.65;;
50319;SDS011;36226;53.464;9.852;2022-11-15T01:54:21;33.53;;;16.27;;
50319;SDS011;36226;53.464;9.852;2022-11-15T01:56:50;30.35;;;16.55;;
50319;SDS011;36226;53.464;9.852;2022-11-15T01:59:17;33.45;;;16.52;;
50319;SDS011;36226;53.464;9.852;2022-11-15T02:01:43;29.67;;;16.02;;
50319;SDS011;36226;53.464;9.852;2022-11-15T02:04:22;29.55;;;15.23;;
50319;SDS011;36226;53.464;9.852;2022-11-15T02:06:50;30.63;;;15.88;;
50319;SDS011;36226;53.464;9.852;2022-11-15T02:09:19;26.33;;;14.30;;
50319;SDS011;36226;53.464;9.852;2022-11-15T02:11:44;25.75;;;13.98;;
50319;SDS011;36226;53.464;9.852;2022-11-15T02:14:11;26.77;;;14.77;;
50319;SDS011;36226;53.464;9.852;2022-11-15T02:22:27;30.80;;;15.48;;
50319;SDS011;36226;53.464;9.852;2022-11-15T02:25:11;23.88;;;13.18;;
50319;SDS011;36226;53.464;9.852;2022-11-15T02:31:00;30.17;;;15.10;;
50319;SDS011;36226;53.464;9.852;2022-11-15T02:36:12;26.65;;;13.90;;
50319;SDS011;36226;53.464;9.852;2022-11-15T02:38:40;20.95;;;12.80;;
50319;SDS011;36226;53.464;9.852;2022-11-15T02:41:20;21.70;;;12.63;;
50319;SDS011;36226;53.464;9.852;2022-11-15T02:44:06;24.40;;;12.95;;
50319;SDS011;36226;53.464;9.852;2022-11-15T02:49:40;23.65;;;12.48;;
50319;SDS011;36226;53.464;9.852;2022-11-15T02:52:07;22.30;;;12.25;;
50319;SDS011;36226;53.464;9.852;2022-11-15T02:54:39;21.38;;;11.18;;
50319;SDS011;36226;53.464;9.852;2022-11-15T02:57:12;22.50;;;12.40;;
50319;SDS011;36226;53.464;9.852;2022-11-15T03:13:02;24.45;;;11.55;;
50319;SDS011;36226;53.464;9.852;2022-11-15T03:15:37;22.58;;;11.80;;
50319;SDS011;36226;53.464;9.852;2022-11-15T03:18:15;20.33;;;12.02;;
50319;SDS011;36226;53.464;9.852;2022-11-15T03:20:44;24.45;;;12.57;;
50319;SDS011;36226;53.464;9.852;2022-11-15T03:23:11;23.02;;;12.18;;
50319;SDS011;36226;53.464;9.852;2022-11-15T03:25:37;19.17;;;11.02;;
50319;SDS011;36226;53.464;9.852;2022-11-15T03:28:05;23.05;;;11.77;;
50319;SDS011;36226;53.464;9.852;2022-11-15T03:30:32;22.08;;;11.32;;
50319;SDS011;36226;53.464;9.852;2022-11-15T03:32:59;21.35;;;11.68;;
50319;SDS011;36226;53.464;9.852;2022-11-15T03:35:27;18.45;;;10.27;;
50319;SDS011;36226;53.464;9.852;2022-11-15T03:38:07;20.02;;;11.48;;
50319;SDS011;36226;53.464;9.852;2022-11-15T03:40:38;22.48;;;11.88;;
50319;SDS011;36226;53.464;9.852;2022-11-15T03:43:17;20.48;;;10.93;;
50319;SDS011;36226;53.464;9.852;2022-11-15T03:45:54;20.35;;;11.45;;
50319;SDS011;36226;53.464;9.852;2022-11-15T03:48:23;20.65;;;11.20;;
50319;SDS011;36226;53.464;9.852;2022-11-15T03:50:49;22.70;;;12.20;;
50319;SDS011;36226;53.464;9.852;2022-11-15T03:53:16;23.33;;;13.07;;
50319;SDS011;36226;53.464;9.852;2022-11-15T03:55:42;22.58;;;12.25;;
50319;SDS011;36226;53.464;9.852;2022-11-15T03:58:07;20.70;;;11.85;;
50319;SDS011;36226;53.464;9.852;2022-11-15T04:00:32;21.10;;;11.68;;
50319;SDS011;36226;53.464;9.852;2022-11-15T04:02:58;21.45;;;11.07;;
50319;SDS011;36226;53.464;9.852;2022-11-15T04:05:23;22.23;;;12.40;;
50319;SDS011;36226;53.464;9.852;2022-11-15T04:07:49;22.17;;;11.45;;
50319;SDS011;36226;53.464;9.852;2022-11-15T04:10:14;21.90;;;11.82;;
50319;SDS011;36226;53.464;9.852;2022-11-15T04:12:41;21.05;;;11.55;;
50319;SDS011;36226;53.464;9.852;2022-11-15T04:17:34;21.70;;;11.57;;
50319;SDS011;36226;53.464;9.852;2022-11-15T04:20:12;22.13;;;11.85;;
50319;SDS011;36226;53.464;9.852;2022-11-15T04:23:02;21.05;;;11.70;;
50319;SDS011;36226;53.464;9.852;2022-11-15T04:25:49;24.25;;;12.27;;
50319;SDS011;36226;53.464;9.852;2022-11-15T04:28:15;22.00;;;12.25;;
50319;SDS011;36226;53.464;9.852;2022-11-15T04:30:41;22.55;;;12.13;;
50319;SDS011;36226;53.464;9.852;2022-11-15T04:33:06;20.88;;;12.52;;
50319;SDS011;36226;53.464;9.852;2022-11-15T04:35:34;23.30;;;12.73;;
50319;SDS011;36226;53.464;9.852;2022-11-15T04:38:00;21.30;;;12.05;;
50319;SDS011;36226;53.464;9.852;2022-11-15T04:40:26;23.40;;;11.88;;
50319;SDS011;36226;53.464;9.852;2022-11-15T04:42:52;21.45;;;11.98;;
50319;SDS011;36226;53.464;9.852;2022-11-15T04:45:17;22.02;;;11.90;;
50319;SDS011;36226;53.464;9.852;2022-11-15T04:47:43;23.17;;;12.75;;
50319;SDS011;36226;53.464;9.852;2022-11-15T04:50:10;25.05;;;13.82;;
50319;SDS011;36226;53.464;9.852;2022-11-15T04:52:38;26.42;;;14.05;;
50319;SDS011;36226;53.464;9.852;2022-11-15T04:55:14;25.55;;;14.18;;
50319;SDS011;36226;53.464;9.852;2022-11-15T04:57:40;25.40;;;14.38;;
50319;SDS011;36226;53.464;9.852;2022-11-15T05:00:06;28.73;;;14.30;;
50319;SDS011;36226;53.464;9.852;2022-11-15T05:02:34;28.77;;;15.00;;
50319;SDS011;36226;53.464;9.852;2022-11-15T05:05:18;24.65;;;14.48;;
50319;SDS011;36226;53.464;9.852;2022-11-15T05:07:44;26.42;;;13.52;;
50319;SDS011;36226;53.464;9.852;2022-11-15T05:10:09;25.55;;;14.07;;
50319;SDS011;36226;53.464;9.852;2022-11-15T05:12:35;24.30;;;13.82;;
50319;SDS011;36226;53.464;9.852;2022-11-15T05:15:00;24.70;;;13.80;;
50319;SDS011;36226;53.464;9.852;2022-11-15T05:17:26;26.30;;;14.25;;
50319;SDS011;36226;53.464;9.852;2022-11-15T05:19:51;25.10;;;14.15;;
50319;SDS011;36226;53.464;9.852;2022-11-15T05:22:17;22.00;;;12.63;;
50319;SDS011;36226;53.464;9.852;2022-11-15T05:24:43;24.52;;;13.70;;
50319;SDS011;36226;53.464;9.852;2022-11-15T05:27:08;25.08;;;13.95;;
50319;SDS011;36226;53.464;9.852;2022-11-15T05:29:34;22.98;;;13.45;;
50319;SDS011;36226;53.464;9.852;2022-11-15T05:31:59;23.95;;;13.45;;
50319;SDS011;36226;53.464;9.852;2022-11-15T05:34:24;27.00;;;13.60;;
50319;SDS011;36226;53.464;9.852;2022-11-15T05:36:51;27.02;;;13.35;;
50319;SDS011;36226;53.464;9.852;2022-11-15T05:39:17;26.17;;;13.27;;
50319;SDS011;36226;53.464;9.852;2022-11-15T05:41:47;22.88;;;12.48;;
50319;SDS011;36226;53.464;9.852;2022-11-15T05:44:15;21.70;;;13.00;;
50319;SDS011;36226;53.464;9.852;2022-11-15T05:46:43;23.15;;;12.27;;
50319;SDS011;36226;53.464;9.852;2022-11-15T05:49:09;23.52;;;12.93;;
50319;SDS011;36226;53.464;9.852;2022-11-15T05:51:36;21.30;;;11.73;;
50319;SDS011;36226;53.464;9.852;2022-11-15T05:54:01;21.45;;;12.50;;
50319;SDS011;36226;53.464;9.852;2022-11-15T05:56:27;21.88;;;12.52;;
50319;SDS011;36226;53.464;9.852;2022-11-15T05:58:53;22.23;;;12.15;;
50319;SDS011;36226;53.464;9.852;2022-11-15T06:01:20;19.80;;;11.73;;
50319;SDS011;36226;53.464;9.852;2022-11-15T06:03:45;21.10;;;11.68;;
50319;SDS011;36226;53.464;9.852;2022-11-15T06:06:11;22.40;;;12.30;;
50319;SDS011;36226;53.464;9.852;2022-11-15T06:08:36;20.33;;;12.35;;
50319;SDS011;36226;53.464;9.852;2022-11-15T06:11:05;23.38;;;12.63;;
50319;SDS011;36226;53.464;9.852;2022-11-15T06:13:31;23.67;;;13.07;;
50319;SDS011;36226;53.464;9.852;2022-11-15T06:15:57;23.77;;;13.20;;
50319;SDS011;36226;53.464;9.852;2022-11-15T06:18:22;21.77;;;12.00;;
50319;SDS011;36226;53.464;9.852;2022-11-15T06:20:47;22.33;;;13.10;;
50319;SDS011;36226;53.464;9.852;2022-11-15T06:23:13;23.30;;;13.32;;
50319;SDS011;36226;53.464;9.852;2022-11-15T06:25:41;21.10;;;12.35;;
50319;SDS011;36226;53.464;9.852;2022-11-15T06:28:06;23.73;;;12.18;;
50319;SDS011;36226;53.464;9.852;2022-11-15T06:30:32;21.88;;;13.10;;
50319;SDS011;36226;53.464;9.852;2022-11-15T06:33:01;19.38;;;12.18;;
50319;SDS011;36226;53.464;9.852;2022-11-15T06:35:28;20.00;;;12.50;;
50319;SDS011;36226;53.464;9.852;2022-11-15T06:37:53;24.42;;;13.32;;
50319;SDS011;36226;53.464;9.852;2022-11-15T06:40:19;21.92;;;12.65;;
50319;SDS011;36226;53.464;9.852;2022-11-15T06:42:44;20.73;;;11.70;;
50319;SDS011;36226;53.464;9.852;2022-11-15T06:45:09;24.08;;;12.60;;
50319;SDS011;36226;53.464;9.852;2022-11-15T06:47:35;22.25;;;12.43;;
50319;SDS011;36226;53.464;9.852;2022-11-15T06:50:00;23.65;;;12.35;;
50319;SDS011;36226;53.464;9.852;2022-11-15T06:52:25;20.35;;;11.55;;
50319;SDS011;36226;53.464;9.852;2022-11-15T06:54:57;24.92;;;12.18;;
50319;SDS011;36226;53.464;9.852;2022-11-15T06:57:22;21.95;;;11.25;;
50319;SDS011;36226;53.464;9.852;2022-11-15T06:59:48;19.42;;;10.98;;
50319;SDS011;36226;53.464;9.852;2022-11-15T07:02:13;23.73;;;11.90;;
50319;SDS011;36226;53.464;9.852;2022-11-15T07:04:39;21.17;;;11.38;;
50319;SDS011;36226;53.464;9.852;2022-11-15T07:07:04;20.00;;;11.52;;
50319;SDS011;36226;53.464;9.852;2022-11-15T07:09:29;20.05;;;11.10;;
50319;SDS011;36226;53.464;9.852;2022-11-15T07:11:55;20.83;;;11.90;;
50319;SDS011;36226;53.464;9.852;2022-11-15T07:14:20;20.58;;;11.32;;
50319;SDS011;36226;53.464;9.852;2022-11-15T07:16:45;19.70;;;10.80;;
50319;SDS011;36226;53.464;9.852;2022-11-15T07:19:13;22.58;;;11.80;;
50319;SDS011;36226;53.464;9.852;2022-11-15T07:21:39;19.15;;;11.50;;
50319;SDS011;36226;53.464;9.852;2022-11-15T07:24:04;23.73;;;12.13;;
50319;SDS011;36226;53.464;9.852;2022-11-15T07:26:30;20.67;;;10.70;;
50319;SDS011;36226;53.464;9.852;2022-11-15T07:28:55;21.08;;;11.63;;
50319;SDS011;36226;53.464;9.852;2022-11-15T07:31:20;21.50;;;11.23;;
50319;SDS011;36226;53.464;9.852;2022-11-15T07:33:47;19.45;;;11.15;;
50319;SDS011;36226;53.464;9.852;2022-11-15T07:36:12;21.98;;;11.18;;
50319;SDS011;36226;53.464;9.852;2022-11-15T07:38:38;21.17;;;11.93;;
50319;SDS011;36226;53.464;9.852;2022-11-15T07:41:04;22.98;;;12.25;;
50319;SDS011;36226;53.464;9.852;2022-11-15T07:43:30;21.17;;;11.32;;
50319;SDS011;36226;53.464;9.852;2022-11-15T07:46:03;20.52;;;11.40;;
50319;SDS011;36226;53.464;9.852;2022-11-15T07:48:30;21.05;;;11.50;;
50319;SDS011;36226;53.464;9.852;2022-11-15T07:50:55;23.08;;;11.68;;
50319;SDS011;36226;53.464;9.852;2022-11-15T07:53:21;26.65;;;12.25;;
50319;SDS011;36226;53.464;9.852;2022-11-15T07:55:46;19.98;;;11.10;;
50319;SDS011;36226;53.464;9.852;2022-11-15T07:58:11;20.02;;;11.63;;
50319;SDS011;36226;53.464;9.852;2022-11-15T08:00:38;20.30;;;12.23;;
50319;SDS011;36226;53.464;9.852;2022-11-15T08:03:14;21.05;;;11.32;;
50319;SDS011;36226;53.464;9.852;2022-11-15T08:05:41;20.55;;;11.38;;
50319;SDS011;36226;53.464;9.852;2022-11-15T08:08:07;23.90;;;11.88;;
50319;SDS011;36226;53.464;9.852;2022-11-15T08:10:33;17.75;;;10.73;;
50319;SDS011;36226;53.464;9.852;2022-11-15T08:13:00;20.75;;;11.25;;
50319;SDS011;36226;53.464;9.852;2022-11-15T08:15:33;17.52;;;10.70;;
50319;SDS011;36226;53.464;9.852;2022-11-15T08:17:59;20.27;;;10.60;;
50319;SDS011;36226;53.464;9.852;2022-11-15T08:20:26;19.35;;;11.32;;
50319;SDS011;36226;53.464;9.852;2022-11-15T08:22:56;19.08;;;10.82;;
50319;SDS011;36226;53.464;9.852;2022-11-15T08:25:22;19.15;;;11.15;;
50319;SDS011;36226;53.464;9.852;2022-11-15T08:27:50;27.13;;;15.82;;
50319;SDS011;36226;53.464;9.852;2022-11-15T08:30:16;22.55;;;12.60;;
50319;SDS011;36226;53.464;9.852;2022-11-15T08:32:42;20.13;;;11.27;;
50319;SDS011;36226;53.464;9.852;2022-11-15T08:35:07;20.70;;;11.48;;
50319;SDS011;36226;53.464;9.852;2022-11-15T08:37:33;20.52;;;10.77;;
50319;SDS011;36226;53.464;9.852;2022-11-15T08:39:58;18.55;;;10.07;;
50319;SDS011;36226;53.464;9.852;2022-11-15T08:42:24;17.45;;;10.63;;
50319;SDS011;36226;53.464;9.852;2022-11-15T08:44:49;18.75;;;10.68;;
50319;SDS011;36226;53.464;9.852;2022-11-15T08:47:15;16.52;;;10.48;;
50319;SDS011;36226;53.464;9.852;2022-11-15T08:49:40;18.42;;;10.88;;
50319;SDS011;36226;53.464;9.852;2022-11-15T08:52:05;18.90;;;10.57;;
50319;SDS011;36226;53.464;9.852;2022-11-15T08:54:31;18.85;;;10.20;;
50319;SDS011;36226;53.464;9.852;2022-11-15T08:56:56;16.65;;;9.50;;
50319;SDS011;36226;53.464;9.852;2022-11-15T08:59:22;16.02;;;9.73;;
50319;SDS011;36226;53.464;9.852;2022-11-15T09:01:47;16.27;;;9.48;;
50319;SDS011;36226;53.464;9.852;2022-11-15T09:04:13;17.30;;;9.60;;
50319;SDS011;36226;53.464;9.852;2022-11-15T09:06:38;17.25;;;10.07;;
50319;SDS011;36226;53.464;9.852;2022-11-15T09:09:03;17.25;;;9.63;;
50319;SDS011;36226;53.464;9.852;2022-11-15T09:11:29;15.82;;;10.02;;
50319;SDS011;36226;53.464;9.852;2022-11-15T09:13:54;18.98;;;10.32;;
50319;SDS011;36226;53.464;9.852;2022-11-15T09:16:20;14.85;;;9.98;;
50319;SDS011;36226;53.464;9.852;2022-11-15T09:18:45;16.15;;;10.05;;
50319;SDS011;36226;53.464;9.852;2022-11-15T09:21:11;16.27;;;10.00;;
50319;SDS011;36226;53.464;9.852;2022-11-15T09:23:36;15.93;;;9.52;;
50319;SDS011;36226;53.464;9.852;2022-11-15T09:26:02;18.70;;;9.38;;
50319;SDS011;36226;53.464;9.852;2022-11-15T09:28:29;14.10;;;8.63;;
50319;SDS011;36226;53.464;9.852;2022-11-15T09:30:56;17.83;;;9.75;;
50319;SDS011;36226;53.464;9.852;2022-11-15T09:33:25;15.95;;;8.90;;
50319;SDS011;36226;53.464;9.852;2022-11-15T09:35:51;18.83;;;9.40;;
50319;SDS011;36226;53.464;9.852;2022-11-15T09:38:16;17.75;;;8.95;;
50319;SDS011;36226;53.464;9.852;2022-11-15T09:40:42;13.73;;;8.95;;
50319;SDS011;36226;53.464;9.852;2022-11-15T09:51:25;12.63;;;8.40;;
50319;SDS011;36226;53.464;9.852;2022-11-15T09:54:40;15.75;;;8.65;;
50319;SDS011;36226;53.464;9.852;2022-11-15T09:56:54;12.25;;;8.70;;
50319;SDS011;36226;53.464;9.852;2022-11-15T10:04:27;17.63;;;8.63;;
50319;SDS011;36226;53.464;9.852;2022-11-15T10:07:04;15.15;;;8.82;;
50319;SDS011;36226;53.464;9.852;2022-11-15T10:12:07;14.52;;;8.05;;
50319;SDS011;36226;53.464;9.852;2022-11-15T10:14:33;16.42;;;9.00;;
50319;SDS011;36226;53.464;9.852;2022-11-15T10:17:09;15.82;;;9.50;;
50319;SDS011;36226;53.464;9.852;2022-11-15T10:19:56;14.70;;;9.27;;
50319;SDS011;36226;53.464;9.852;2022-11-15T10:22:28;13.48;;;9.23;;
50319;SDS011;36226;53.464;9.852;2022-11-15T10:25:09;18.10;;;9.63;;
50319;SDS011;36226;53.464;9.852;2022-11-15T10:27:40;16.75;;;9.73;;
50319;SDS011;36226;53.464;9.852;2022-11-15T10:30:13;15.25;;;9.50;;
50319;SDS011;36226;53.464;9.852;2022-11-15T10:32:41;17.55;;;9.75;;
50319;SDS011;36226;53.464;9.852;2022-11-15T10:35:27;14.63;;;9.48;;
50319;SDS011;36226;53.464;9.852;2022-11-15T10:38:07;17.15;;;9.27;;
50319;SDS011;36226;53.464;9.852;2022-11-15T10:40:36;15.88;;;9.38;;
50319;SDS011;36226;53.464;9.852;2022-11-15T10:43:14;15.60;;;9.23;;
50319;SDS011;36226;53.464;9.852;2022-11-15T10:45:43;14.63;;;9.13;;
50319;SDS011;36226;53.464;9.852;2022-11-15T10:50:37;14.18;;;9.20;;
50319;SDS011;36226;53.464;9.852;2022-11-15T10:55:48;15.02;;;8.82;;
50319;SDS011;36226;53.464;9.852;2022-11-15T11:01:08;18.00;;;9.40;;
50319;SDS011;36226;53.464;9.852;2022-11-15T11:03:35;16.05;;;9.15;;
50319;SDS011;36226;53.464;9.852;2022-11-15T11:06:05;14.10;;;9.25;;
50319;SDS011;36226;53.464;9.852;2022-11-15T11:08:33;12.40;;;7.88;;
50319;SDS011;36226;53.464;9.852;2022-11-15T11:11:00;16.75;;;8.23;;
50319;SDS011;36226;53.464;9.852;2022-11-15T11:13:27;14.40;;;8.65;;
50319;SDS011;36226;53.464;9.852;2022-11-15T11:21:49;14.50;;;8.18;;
50319;SDS011;36226;53.464;9.852;2022-11-15T11:24:33;12.25;;;8.10;;
50319;SDS011;36226;53.464;9.852;2022-11-15T11:41:33;13.48;;;7.05;;
50319;SDS011;36226;53.464;9.852;2022-11-15T11:52:26;16.35;;;7.05;;
50319;SDS011;36226;53.464;9.852;2022-11-15T11:55:05;10.45;;;6.97;;
50319;SDS011;36226;53.464;9.852;2022-11-15T11:57:40;12.00;;;6.60;;
50319;SDS011;36226;53.464;9.852;2022-11-15T12:00:17;11.70;;;6.97;;
50319;SDS011;36226;53.464;9.852;2022-11-15T12:03:33;10.27;;;6.85;;
50319;SDS011;36226;53.464;9.852;2022-11-15T12:05:45;14.18;;;6.88;;
50319;SDS011;36226;53.464;9.852;2022-11-15T12:11:17;10.65;;;6.70;;
50319;SDS011;36226;53.464;9.852;2022-11-15T12:13:48;10.77;;;6.32;;
50319;SDS011;36226;53.464;9.852;2022-11-15T12:16:23;10.70;;;7.00;;
50319;SDS011;36226;53.464;9.852;2022-11-15T12:18:53;9.68;;;6.38;;
50319;SDS011;36226;53.464;9.852;2022-11-15T12:23:52;10.68;;;6.47;;
50319;SDS011;36226;53.464;9.852;2022-11-15T12:26:26;10.75;;;6.32;;
50319;SDS011;36226;53.464;9.852;2022-11-15T12:28:57;9.35;;;6.18;;
50319;SDS011;36226;53.464;9.852;2022-11-15T12:33:50;11.88;;;6.57;;
50319;SDS011;36226;53.464;9.852;2022-11-15T12:36:42;14.77;;;7.10;;
50319;SDS011;36226;53.464;9.852;2022-11-15T12:39:09;9.82;;;6.65;;
50319;SDS011;36226;53.464;9.852;2022-11-15T12:41:36;10.20;;;6.30;;
50319;SDS011;36226;53.464;9.852;2022-11-15T12:44:03;11.02;;;6.60;;
50319;SDS011;36226;53.464;9.852;2022-11-15T12:49:02;12.05;;;6.90;;
50319;SDS011;36226;53.464;9.852;2022-11-15T13:02:28;10.48;;;6.07;;
50319;SDS011;36226;53.464;9.852;2022-11-15T13:17:39;8.63;;;5.68;;
50319;SDS011;36226;53.464;9.852;2022-11-15T13:25:21;10.65;;;6.38;;
50319;SDS011;36226;53.464;9.852;2022-11-15T13:30:34;9.38;;;6.07;;
50319;SDS011;36226;53.464;9.852;2022-11-15T13:33:13;13.18;;;6.68;;
50319;SDS011;36226;53.464;9.852;2022-11-15T13:35:40;13.98;;;7.10;;
50319;SDS011;36226;53.464;9.852;2022-11-15T13:40:56;8.75;;;6.10;;
50319;SDS011;36226;53.464;9.852;2022-11-15T13:48:31;11.25;;;7.10;;
50319;SDS011;36226;53.464;9.852;2022-11-15T13:50:58;10.95;;;6.15;;
50319;SDS011;36226;53.464;9.852;2022-11-15T13:53:24;11.43;;;7.13;;
50319;SDS011;36226;53.464;9.852;2022-11-15T13:55:49;10.48;;;7.07;;
50319;SDS011;36226;53.464;9.852;2022-11-15T13:58:26;12.90;;;7.10;;
50319;SDS011;36226;53.464;9.852;2022-11-15T14:01:01;11.55;;;6.90;;
50319;SDS011;36226;53.464;9.852;2022-11-15T14:03:39;12.07;;;7.20;;
50319;SDS011;36226;53.464;9.852;2022-11-15T14:06:21;9.75;;;6.90;;
50319;SDS011;36226;53.464;9.852;2022-11-15T14:09:01;13.57;;;7.50;;
50319;SDS011;36226;53.464;9.852;2022-11-15T14:11:36;11.27;;;7.32;;
50319;SDS011;36226;53.464;9.852;2022-11-15T14:19:01;10.85;;;7.15;;
50319;SDS011;36226;53.464;9.852;2022-11-15T14:21:27;13.48;;;7.38;;
50319;SDS011;36226;53.464;9.852;2022-11-15T14:23:52;13.07;;;6.63;;
50319;SDS011;36226;53.464;9.852;2022-11-15T14:26:31;14.32;;;7.43;;
50319;SDS011;36226;53.464;9.852;2022-11-15T14:29:21;9.63;;;6.82;;
50319;SDS011;36226;53.464;9.852;2022-11-15T14:31:50;13.98;;;7.80;;
50319;SDS011;36226;53.464;9.852;2022-11-15T14:34:15;11.50;;;7.63;;
50319;SDS011;36226;53.464;9.852;2022-11-15T14:36:40;12.90;;;7.10;;
50319;SDS011;36226;53.464;9.852;2022-11-15T14:39:06;11.07;;;7.03;;
50319;SDS011;36226;53.464;9.852;2022-11-15T14:41:34;10.38;;;6.85;;
50319;SDS011;36226;53.464;9.852;2022-11-15T14:44:02;11.50;;;7.25;;
50319;SDS011;36226;53.464;9.852;2022-11-15T14:46:28;12.00;;;7.50;;
50319;SDS011;36226;53.464;9.852;2022-11-15T14:48:54;10.68;;;6.72;;
50319;SDS011;36226;53.464;9.852;2022-11-15T14:51:19;9.65;;;6.40;;
50319;SDS011;36226;53.464;9.852;2022-11-15T14:53:45;10.38;;;6.65;;
50319;SDS011;36226;53.464;9.852;2022-11-15T14:56:11;12.25;;;6.97;;
50319;SDS011;36226;53.464;9.852;2022-11-15T14:58:37;10.55;;;7.03;;
50319;SDS011;36226;53.464;9.852;2022-11-15T15:01:05;10.15;;;7.15;;
50319;SDS011;36226;53.464;9.852;2022-11-15T15:03:36;10.07;;;7.18;;
50319;SDS011;36226;53.464;9.852;2022-11-15T15:06:01;11.23;;;6.30;;
50319;SDS011;36226;53.464;9.852;2022-11-15T15:08:26;9.60;;;5.95;;
50319;SDS011;36226;53.464;9.852;2022-11-15T15:10:52;11.88;;;6.40;;
50319;SDS011;36226;53.464;9.852;2022-11-15T15:13:22;10.55;;;6.68;;
50319;SDS011;36226;53.464;9.852;2022-11-15T15:15:48;9.27;;;6.00;;
50319;SDS011;36226;53.464;9.852;2022-11-15T15:18:16;9.57;;;5.90;;
50319;SDS011;36226;53.464;9.852;2022-11-15T15:20:42;10.00;;;5.82;;
50319;SDS011;36226;53.464;9.852;2022-11-15T15:23:14;8.82;;;5.85;;
50319;SDS011;36226;53.464;9.852;2022-11-15T15:25:41;9.00;;;5.68;;
50319;SDS011;36226;53.464;9.852;2022-11-15T15:28:06;9.35;;;5.65;;
50319;SDS011;36226;53.464;9.852;2022-11-15T15:30:32;8.73;;;5.72;;
50319;SDS011;36226;53.464;9.852;2022-11-15T15:32:57;9.68;;;6.15;;
50319;SDS011;36226;53.464;9.852;2022-11-15T15:35:23;10.15;;;5.75;;
50319;SDS011;36226;53.464;9.852;2022-11-15T15:37:52;10.07;;;5.95;;
50319;SDS011;36226;53.464;9.852;2022-11-15T15:40:20;8.38;;;5.70;;
50319;SDS011;36226;53.464;9.852;2022-11-15T15:42:46;10.23;;;5.85;;
50319;SDS011;36226;53.464;9.852;2022-11-15T15:45:13;10.50;;;5.93;;
50319;SDS011;36226;53.464;9.852;2022-11-15T15:47:39;9.23;;;6.47;;
50319;SDS011;36226;53.464;9.852;2022-11-15T15:52:58;8.55;;;6.30;;
50319;SDS011;36226;53.464;9.852;2022-11-15T15:55:24;9.07;;;6.38;;
50319;SDS011;36226;53.464;9.852;2022-11-15T15:57:50;8.23;;;5.97;;
50319;SDS011;36226;53.464;9.852;2022-11-15T16:00:16;9.13;;;6.20;;
50319;SDS011;36226;53.464;9.852;2022-11-15T16:02:42;13.48;;;5.88;;
50319;SDS011;36226;53.464;9.852;2022-11-15T16:05:08;9.00;;;5.88;;
50319;SDS011;36226;53.464;9.852;2022-11-15T16:07:34;9.55;;;5.90;;
50319;SDS011;36226;53.464;9.852;2022-11-15T16:09:59;9.45;;;6.15;;
50319;SDS011;36226;53.464;9.852;2022-11-15T16:12:26;9.63;;;6.40;;
50319;SDS011;36226;53.464;9.852;2022-11-15T16:14:54;13.35;;;6.57;;
50319;SDS011;36226;53.464;9.852;2022-11-15T16:17:21;10.80;;;6.50;;
50319;SDS011;36226;53.464;9.852;2022-11-15T16:19:48;9.75;;;6.47;;
50319;SDS011;36226;53.464;9.852;2022-11-15T16:22:13;8.68;;;6.55;;
50319;SDS011;36226;53.464;9.852;2022-11-15T16:24:39;11.73;;;7.00;;
50319;SDS011;36226;53.464;9.852;2022-11-15T16:27:04;11.25;;;7.45;;
50319;SDS011;36226;53.464;9.852;2022-11-15T16:29:29;12.70;;;7.80;;
50319;SDS011;36226;53.464;9.852;2022-11-15T16:31:55;12.20;;;7.53;;
50319;SDS011;36226;53.464;9.852;2022-11-15T16:34:20;11.35;;;7.80;;
50319;SDS011;36226;53.464;9.852;2022-11-15T16:36:46;14.80;;;8.48;;
50319;SDS011;36226;53.464;9.852;2022-11-15T16:39:11;14.65;;;7.78;;
50319;SDS011;36226;53.464;9.852;2022-11-15T16:41:43;12.50;;;7.82;;
50319;SDS011;36226;53.464;9.852;2022-11-15T16:44:11;14.88;;;8.55;;
50319;SDS011;36226;53.464;9.852;2022-11-15T16:46:42;11.70;;;7.75;;
50319;SDS011;36226;53.464;9.852;2022-11-15T16:49:18;16.35;;;9.60;;
50319;SDS011;36226;53.464;9.852;2022-11-15T16:51:47;14.35;;;8.73;;
50319;SDS011;36226;53.464;9.852;2022-11-15T16:54:13;15.07;;;8.32;;
50319;SDS011;36226;53.464;9.852;2022-11-15T16:56:39;15.60;;;8.52;;
50319;SDS011;36226;53.464;9.852;2022-11-15T16:59:05;13.02;;;8.00;;
50319;SDS011;36226;53.464;9.852;2022-11-15T17:01:34;12.77;;;8.80;;
50319;SDS011;36226;53.464;9.852;2022-11-15T17:04:02;12.70;;;8.70;;
50319;SDS011;36226;53.464;9.852;2022-11-15T17:06:40;13.52;;;8.88;;
50319;SDS011;36226;53.464;9.852;2022-11-15T17:09:07;15.38;;;8.05;;
50319;SDS011;36226;53.464;9.852;2022-11-15T17:11:35;11.85;;;7.53;;
50319;SDS011;36226;53.464;9.852;2022-11-15T17:14:01;12.90;;;8.40;;
50319;SDS011;36226;53.464;9.852;2022-11-15T17:16:26;9.77;;;7.18;;
50319;SDS011;36226;53.464;9.852;2022-11-15T17:18:52;15.13;;;8.30;;
50319;SDS011;36226;53.464;9.852;2022-11-15T17:21:18;12.35;;;7.90;;
50319;SDS011;36226;53.464;9.852;2022-11-15T17:23:44;13.38;;;7.95;;
50319;SDS011;36226;53.464;9.852;2022-11-15T17:26:10;11.50;;;7.45;;
50319;SDS011;36226;53.464;9.852;2022-11-15T17:28:37;14.93;;;8.20;;
50319;SDS011;36226;53.464;9.852;2022-11-15T17:31:06;11.50;;;7.50;;
50319;SDS011;36226;53.464;9.852;2022-11-15T17:33:35;11.57;;;7.57;;
50319;SDS011;36226;53.464;9.852;2022-11-15T17:36:02;13.15;;;7.70;;